Time;durP1;ratioP1;P1;durP2;ratioP2;P2;SDS_P1;SDS_P2;PMS_P1;PMS_P2;Temp;Humidity;BMP_temperature;BMP_pressure;BME280_temperature;BME280_humidity;BME280_pressure;Samples;Min_cycle;Max_cycle;Signal;HPM_P1;HPM_P2
2022/11/15 00:01:48;;;;;;;32.58;23.85;;;7.50;99.90;;;;;;5003238;28;20045;-63
2022/11/15 00:04:13;;;;;;;31.70;24.35;;;7.60;99.90;;;;;;5003672;28;20061;-63
2022/11/15 00:06:39;;;;;;;30.77;24.67;;;7.50;99.90;;;;;;4986912;28;20057;-64
2022/11/15 00:09:05;;;;;;;30.52;25.17;;;7.50;99.90;;;;;;5003914;28;20381;-63
2022/11/15 00:11:31;;;;;;;29.48;24.23;;;7.60;99.90;;;;;;5004538;28;20080;-63
2022/11/15 00:13:57;;;;;;;30.08;24.52;;;7.60;99.90;;;;;;5003530;28;20042;-63
2022/11/15 00:16:24;;;;;;;31.75;23.60;;;7.60;99.90;;;;;;5004440;28;20111;-63
2022/11/15 00:18:50;;;;;;;29.02;23.58;;;7.50;99.90;;;;;;5003303;28;20321;-63
2022/11/15 00:21:17;;;;;;;27.60;23.13;;;7.40;99.90;;;;;;4985703;28;20054;-63
2022/11/15 00:23:43;;;;;;;30.05;24.15;;;7.50;99.90;;;;;;5003909;28;20050;-63
2022/11/15 00:26:14;;;;;;;28.73;22.98;;;7.40;99.90;;;;;;5003329;28;20184;-63
2022/11/15 00:28:40;;;;;;;27.38;21.55;;;7.60;99.90;;;;;;5003066;28;20216;-63
2022/11/15 00:31:10;;;;;;;25.55;21.85;;;7.50;99.90;;;;;;4986304;28;20053;-63
2022/11/15 00:33:36;;;;;;;29.15;22.40;;;7.60;99.90;;;;;;4985552;28;20132;-62
2022/11/15 00:36:04;;;;;;;27.83;22.35;;;7.50;99.90;;;;;;5003164;28;20121;-63
2022/11/15 00:38:34;;;;;;;27.20;21.63;;;7.40;99.90;;;;;;5003736;28;20137;-63
2022/11/15 00:41:00;;;;;;;29.38;23.05;;;7.50;99.90;;;;;;5003402;28;20056;-63
2022/11/15 00:43:26;;;;;;;27.48;21.75;;;7.40;99.90;;;;;;5002162;28;20041;-63
2022/11/15 00:45:51;;;;;;;25.83;22.42;;;7.20;99.90;;;;;;5004028;28;20046;-64
2022/11/15 00:48:17;;;;;;;27.70;22.10;;;7.20;99.90;;;;;;5003649;28;20065;-63
2022/11/15 00:50:43;;;;;;;29.55;22.45;;;7.30;99.90;;;;;;5003604;28;20123;-63
2022/11/15 00:53:10;;;;;;;26.90;22.20;;;7.20;99.90;;;;;;5004493;28;20038;-63
2022/11/15 00:55:35;;;;;;;28.80;21.77;;;7.10;99.90;;;;;;4986471;28;20594;-63
2022/11/15 00:58:01;;;;;;;27.48;22.30;;;7.20;99.90;;;;;;5004282;28;20067;-63
2022/11/15 01:00:27;;;;;;;26.05;21.60;;;7.10;99.90;;;;;;5003103;28;20044;-63
2022/11/15 01:02:53;;;;;;;26.60;21.17;;;7.20;99.90;;;;;;5004841;28;20042;-63
2022/11/15 01:05:18;;;;;;;26.77;21.38;;;7.00;99.90;;;;;;4980688;28;20033;-63
2022/11/15 01:07:44;;;;;;;27.83;21.30;;;7.30;99.90;;;;;;5004164;28;20404;-63
2022/11/15 01:10:10;;;;;;;26.10;22.40;;;6.90;99.90;;;;;;5003158;28;20049;-63
2022/11/15 01:12:35;;;;;;;27.88;22.45;;;6.90;99.90;;;;;;5004152;28;20045;-63
2022/11/15 01:15:01;;;;;;;26.70;21.40;;;7.10;99.90;;;;;;5003531;28;20369;-63
2022/11/15 01:17:27;;;;;;;28.00;22.42;;;6.80;99.90;;;;;;5004477;28;20523;-63
2022/11/15 01:19:53;;;;;;;26.65;21.80;;;6.90;99.90;;;;;;5003642;28;20095;-63
2022/11/15 01:22:18;;;;;;;26.48;22.08;;;6.80;99.90;;;;;;5003420;28;20084;-64
2022/11/15 01:24:44;;;;;;;25.13;20.25;;;6.80;99.90;;;;;;5003799;28;20046;-64
2022/11/15 01:27:10;;;;;;;26.58;21.42;;;6.90;99.90;;;;;;5003704;28;20054;-64
2022/11/15 01:29:36;;;;;;;26.88;21.58;;;7.10;99.90;;;;;;5002908;28;20041;-63
2022/11/15 01:32:01;;;;;;;27.55;21.27;;;7.20;99.90;;;;;;4985234;28;20046;-63
2022/11/15 01:34:27;;;;;;;31.30;25.67;;;7.00;99.90;;;;;;5003583;28;20045;-63
2022/11/15 01:36:53;;;;;;;28.92;24.48;;;7.10;99.90;;;;;;5002928;28;20034;-63
2022/11/15 01:39:18;;;;;;;31.05;26.20;;;7.20;99.90;;;;;;5003504;28;20478;-63
2022/11/15 01:41:44;;;;;;;29.35;24.58;;;7.50;99.90;;;;;;5002730;28;20047;-64
2022/11/15 01:44:41;;;;;;;30.25;25.65;;;7.30;99.90;;;;;;5002142;28;20034;-63
2022/11/15 01:47:13;;;;;;;29.35;24.63;;;7.10;99.90;;;;;;5002790;28;20119;-62
2022/11/15 01:49:44;;;;;;;31.52;24.70;;;7.30;99.90;;;;;;5002214;28;20124;-63
2022/11/15 01:52:14;;;;;;;29.00;24.90;;;7.20;99.90;;;;;;4985090;28;20042;-63
2022/11/15 01:54:40;;;;;;;30.83;25.48;;;7.20;99.90;;;;;;5002794;28;20049;-63
2022/11/15 01:57:11;;;;;;;29.15;23.58;;;7.30;99.90;;;;;;5002083;28;20050;-63
2022/11/15 01:59:42;;;;;;;28.30;22.45;;;7.20;99.90;;;;;;5002217;28;20067;-63
2022/11/15 02:02:08;;;;;;;29.58;24.50;;;7.40;99.90;;;;;;5003239;28;20107;-63
2022/11/15 02:04:44;;;;;;;30.45;24.58;;;7.40;99.90;;;;;;5001511;28;20055;-63
2022/11/15 02:07:13;;;;;;;30.90;25.27;;;7.30;99.90;;;;;;5002741;28;20037;-63
2022/11/15 02:09:39;;;;;;;30.38;25.00;;;7.40;99.90;;;;;;4985340;28;20054;-63
2022/11/15 02:12:09;;;;;;;31.80;25.02;;;7.30;99.90;;;;;;5002015;28;20562;-63
2022/11/15 02:14:37;;;;;;;31.45;24.58;;;7.40;99.90;;;;;;5001913;28;20078;-64
2022/11/15 02:17:11;;;;;;;29.40;22.60;;;7.60;99.90;;;;;;4985407;28;20480;-63
2022/11/15 02:20:00;;;;;;;31.90;23.83;;;7.50;99.90;;;;;;5001458;28;20058;-63
2022/11/15 02:22:29;;;;;;;29.30;22.95;;;7.40;99.90;;;;;;5075630;23;20105;-63
2022/11/15 02:25:20;;;;;;;29.08;23.45;;;7.50;99.90;;;;;;4997641;28;20503;-63
2022/11/15 02:28:02;;;;;;;28.33;23.20;;;7.60;99.90;;;;;;4973189;28;20073;-63
2022/11/15 02:30:50;;;;;;;28.85;21.95;;;7.50;99.90;;;;;;5001774;28;20427;-63
2022/11/15 02:33:22;;;;;;;31.77;22.52;;;7.60;99.90;;;;;;5003139;28;20046;-63
2022/11/15 02:35:56;;;;;;;28.55;22.40;;;7.50;99.90;;;;;;4984043;28;20045;-63
2022/11/15 02:38:27;;;;;;;;;;;7.60;99.90;;;;;;5002988;28;20112;-63
2022/11/15 02:41:08;;;;;;;30.20;22.35;;;7.50;99.90;;;;;;5002310;28;19925;-63
2022/11/15 02:43:56;;;;;;;30.45;23.77;;;7.60;99.90;;;;;;5003941;28;20078;-63
2022/11/15 02:49:28;;;;;;;28.67;22.33;;;7.70;99.90;;;;;;5006109;28;20471;-62
2022/11/15 02:51:55;;;;;;;28.00;21.23;;;7.60;99.90;;;;;;4989066;28;20046;-63
2022/11/15 02:54:26;;;;;;;29.17;22.45;;;7.70;99.90;;;;;;5006587;28;20065;-63
2022/11/15 02:56:56;;;;;;;29.55;22.65;;;7.80;99.90;;;;;;5006508;28;20053;-63
2022/11/15 02:59:24;;;;;;;30.70;22.40;;;7.60;99.90;;;;;;5004664;28;20129;-63
2022/11/15 03:02:15;;;;;;;30.60;22.23;;;8.10;99.90;;;;;;5005272;28;20045;-63
2022/11/15 03:04:54;;;;;;;29.75;21.85;;;7.60;99.90;;;;;;5005368;28;20058;-63
2022/11/15 03:07:29;;;;;;;31.13;22.63;;;7.70;99.90;;;;;;4997737;28;20125;-63
2022/11/15 03:10:12;;;;;;;32.38;22.67;;;7.70;99.90;;;;;;5004820;28;20944;-63
2022/11/15 03:12:59;;;;;;;28.25;21.77;;;7.60;99.90;;;;;;5005469;28;20053;-63
2022/11/15 03:15:36;;;;;;;31.48;23.00;;;7.70;99.90;;;;;;5005141;28;20034;-63
2022/11/15 03:18:12;;;;;;;28.95;21.25;;;7.70;99.90;;;;;;4988409;28;20038;-63
2022/11/15 03:20:39;;;;;;;29.17;22.67;;;7.70;99.90;;;;;;4987030;28;20060;-63
2022/11/15 03:23:08;;;;;;;31.33;23.45;;;7.60;99.90;;;;;;5005667;28;20069;-63
2022/11/15 03:25:40;;;;;;;28.90;21.48;;;7.60;99.90;;;;;;5005612;28;20046;-63
2022/11/15 03:28:08;;;;;;;30.42;21.52;;;7.80;99.90;;;;;;5004106;28;20069;-63
2022/11/15 03:30:36;;;;;;;30.15;22.25;;;7.70;99.90;;;;;;5006355;28;20050;-63
2022/11/15 03:33:04;;;;;;;29.08;22.65;;;7.70;99.90;;;;;;4988571;28;20535;-63
2022/11/15 03:35:37;;;;;;;33.50;23.48;;;7.70;99.90;;;;;;5004437;28;20521;-63
2022/11/15 03:38:08;;;;;;;30.88;22.38;;;7.70;99.90;;;;;;5005299;28;20064;-62
2022/11/15 03:40:53;;;;;;;35.70;23.38;;;7.80;99.90;;;;;;5005905;28;20409;-63
2022/11/15 03:43:36;;;;;;;34.22;23.38;;;7.60;99.90;;;;;;4987089;28;20061;-63
2022/11/15 03:46:25;;;;;;;36.13;24.40;;;7.80;99.90;;;;;;5004818;28;20081;-63
2022/11/15 03:48:54;;;;;;;38.38;24.42;;;7.70;99.90;;;;;;5004912;28;20061;-63
2022/11/15 03:51:20;;;;;;;42.42;25.55;;;7.60;99.90;;;;;;5005040;28;20044;-63
2022/11/15 03:53:46;;;;;;;48.33;26.73;;;8.00;99.90;;;;;;5004047;28;20049;-63
2022/11/15 03:56:12;;;;;;;40.38;25.02;;;7.60;99.90;;;;;;4986853;28;20029;-63
2022/11/15 03:58:37;;;;;;;42.08;26.02;;;7.70;99.90;;;;;;5004711;28;20053;-63
2022/11/15 04:01:03;;;;;;;48.58;27.88;;;7.80;99.90;;;;;;5005579;28;20034;-63
2022/11/15 04:03:29;;;;;;;50.10;27.77;;;7.80;99.90;;;;;;5004299;28;20618;-63
2022/11/15 04:05:54;;;;;;;49.30;26.42;;;7.50;99.90;;;;;;5004745;28;20046;-64
2022/11/15 04:08:20;;;;;;;47.00;27.27;;;7.70;99.90;;;;;;5005169;28;20092;-63
2022/11/15 04:10:49;;;;;;;41.85;26.40;;;7.60;99.90;;;;;;5004328;28;20160;-63
2022/11/15 04:13:14;;;;;;;45.85;25.98;;;7.60;99.90;;;;;;5004214;28;20050;-63
2022/11/15 04:15:40;;;;;;;45.17;27.27;;;7.70;99.90;;;;;;5004474;28;20053;-63
2022/11/15 04:18:06;;;;;;;47.08;27.60;;;7.80;99.90;;;;;;5005070;28;20053;-63
2022/11/15 04:26:11;;;;;;;42.13;26.80;;;7.90;99.90;;;;;;5005391;28;20448;-64
2022/11/15 04:29:33;;;;;;;44.47;27.30;;;7.70;99.90;;;;;;5004126;28;20120;-63
2022/11/15 04:31:23;;;;;;;40.05;26.65;;;7.70;99.90;;;;;;5004556;28;20050;-63
2022/11/15 04:33:49;;;;;;;46.38;27.88;;;7.80;99.90;;;;;;5004829;28;20520;-63
2022/11/15 04:38:59;;;;;;;47.00;28.35;;;7.70;99.90;;;;;;5005036;28;20377;-63
2022/11/15 04:41:24;;;;;;;44.50;28.15;;;7.70;99.90;;;;;;5004463;28;20145;-63
2022/11/15 04:43:50;;;;;;;44.67;28.10;;;7.80;99.90;;;;;;5003956;28;20049;-63
2022/11/15 04:46:16;;;;;;;48.80;28.67;;;7.90;99.90;;;;;;5004343;28;20050;-63
2022/11/15 04:48:41;;;;;;;50.17;30.27;;;8.00;99.90;;;;;;5005161;28;20065;-63
2022/11/15 04:51:07;;;;;;;45.13;28.60;;;7.70;99.90;;;;;;5004735;28;20520;-63
2022/11/15 04:53:33;;;;;;;52.13;30.20;;;7.90;99.90;;;;;;5004048;28;20096;-63
2022/11/15 04:55:58;;;;;;;50.03;30.98;;;7.80;99.90;;;;;;5004634;28;20038;-63
2022/11/15 04:58:24;;;;;;;47.50;31.23;;;7.70;99.90;;;;;;5003774;28;20038;-63
2022/11/15 05:00:49;;;;;;;46.78;29.90;;;7.90;99.90;;;;;;4986650;28;20046;-63
2022/11/15 05:06:00;;;;;;;52.53;32.33;;;7.90;99.90;;;;;;5002981;28;20431;-63
2022/11/15 05:08:25;;;;;;;50.03;30.52;;;8.00;99.90;;;;;;5003184;28;20436;-63
2022/11/15 05:10:51;;;;;;;48.33;30.15;;;8.00;99.90;;;;;;5003469;28;20069;-63
2022/11/15 05:13:17;;;;;;;47.42;29.67;;;7.70;99.90;;;;;;5003333;28;20065;-63
2022/11/15 05:15:43;;;;;;;52.28;31.65;;;7.80;99.90;;;;;;5003478;28;20049;-63
2022/11/15 05:18:09;;;;;;;56.40;32.00;;;7.80;99.90;;;;;;5003677;28;20073;-63
2022/11/15 05:20:34;;;;;;;59.35;34.65;;;7.80;99.90;;;;;;5004288;28;20045;-63
2022/11/15 05:23:00;;;;;;;58.00;34.30;;;8.00;99.90;;;;;;5003498;28;20536;-63
2022/11/15 05:25:26;;;;;;;57.92;34.72;;;7.90;99.90;;;;;;5003594;28;20708;-63
2022/11/15 05:27:52;;;;;;;61.50;35.63;;;7.90;99.90;;;;;;5002258;28;20069;-63
2022/11/15 05:30:17;;;;;;;59.72;33.70;;;8.10;99.90;;;;;;5002191;28;20042;-63
2022/11/15 05:32:44;;;;;;;61.80;35.72;;;8.00;99.90;;;;;;5003469;28;20542;-63
2022/11/15 05:35:19;;;;;;;64.30;36.38;;;8.10;99.90;;;;;;5003755;28;20045;-63
2022/11/15 05:37:45;;;;;;;;;;;8.00;99.90;;;;;;5003880;28;20045;-63
2022/11/15 05:40:10;;;;;;;54.38;33.50;;;8.00;99.90;;;;;;5004072;28;19925;-63
2022/11/15 05:42:36;;;;;;;60.83;35.25;;;8.10;99.90;;;;;;5002574;28;20463;-63
2022/11/15 05:45:04;;;;;;;61.05;36.58;;;8.00;99.90;;;;;;5002147;28;20475;-63
2022/11/15 05:47:31;;;;;;;66.78;36.65;;;8.10;99.90;;;;;;5003291;28;20121;-63
2022/11/15 05:49:57;;;;;;;68.32;36.55;;;8.30;99.90;;;;;;5003025;28;20048;-63
2022/11/15 05:52:28;;;;;;;75.35;39.40;;;8.30;99.90;;;;;;5002328;28;20038;-63
2022/11/15 05:54:55;;;;;;;69.43;37.88;;;8.40;99.90;;;;;;5003565;28;20129;-63
2022/11/15 05:57:21;;;;;;;74.78;38.55;;;8.50;99.90;;;;;;5002461;28;20042;-63
2022/11/15 05:59:47;;;;;;;68.72;37.17;;;8.60;99.90;;;;;;5003655;28;20052;-63
2022/11/15 06:02:12;;;;;;;63.88;37.08;;;8.60;99.90;;;;;;5001461;28;20045;-63
2022/11/15 06:04:38;;;;;;;65.82;35.83;;;8.60;99.90;;;;;;5002720;28;20049;-63
2022/11/15 06:07:04;;;;;;;62.53;34.65;;;8.90;99.90;;;;;;5003257;28;20702;-63
2022/11/15 06:09:30;;;;;;;63.22;34.72;;;8.80;99.90;;;;;;5002621;28;20046;-63
2022/11/15 06:11:55;;;;;;;65.70;35.08;;;8.90;99.90;;;;;;5003122;28;20034;-63
2022/11/15 06:14:21;;;;;;;68.55;36.75;;;9.00;99.90;;;;;;5002302;28;20049;-62
2022/11/15 06:16:47;;;;;;;64.97;36.20;;;8.90;99.90;;;;;;5002401;28;20069;-63
2022/11/15 06:19:12;;;;;;;68.32;37.25;;;8.90;99.90;;;;;;5002483;28;20054;-63
2022/11/15 06:21:38;;;;;;;52.70;30.13;;;8.90;99.90;;;;;;5003041;28;20121;-63
2022/11/15 06:24:05;;;;;;;54.13;30.85;;;9.10;99.90;;;;;;5002357;28;20076;-63
2022/11/15 06:26:31;;;;;;;56.88;33.75;;;9.10;99.90;;;;;;5002353;28;20085;-63
2022/11/15 06:28:56;;;;;;;60.13;34.55;;;8.90;99.90;;;;;;5001357;28;20091;-63
2022/11/15 06:31:22;;;;;;;57.10;33.15;;;9.00;99.90;;;;;;5002257;28;20038;-63
2022/11/15 06:33:49;;;;;;;54.53;31.00;;;9.00;99.90;;;;;;5002768;28;20041;-64
2022/11/15 06:36:16;;;;;;;52.40;30.80;;;9.20;99.90;;;;;;5002068;28;20042;-63
2022/11/15 06:38:42;;;;;;;44.47;29.20;;;9.20;99.90;;;;;;4985135;28;20187;-63
2022/11/15 06:41:09;;;;;;;50.75;31.17;;;9.40;99.90;;;;;;5002646;28;20435;-63
2022/11/15 06:43:35;;;;;;;47.95;30.75;;;9.20;99.90;;;;;;5001444;28;20041;-63
2022/11/15 06:46:02;;;;;;;50.75;30.45;;;9.40;99.90;;;;;;5001483;28;20042;-63
2022/11/15 06:48:30;;;;;;;46.97;31.25;;;9.30;99.90;;;;;;4985075;28;20108;-63
2022/11/15 06:50:58;;;;;;;41.60;24.85;;;9.40;99.90;;;;;;5001717;28;20049;-63
2022/11/15 06:53:25;;;;;;;46.15;30.55;;;9.50;99.90;;;;;;5000807;28;20050;-63
2022/11/15 06:55:51;;;;;;;47.35;30.92;;;9.50;99.90;;;;;;5002049;28;20038;-63
2022/11/15 06:58:17;;;;;;;42.17;29.70;;;9.50;99.90;;;;;;5002307;28;20045;-63
2022/11/15 07:00:43;;;;;;;43.90;30.25;;;9.40;99.90;;;;;;5002415;28;20041;-63
2022/11/15 07:03:09;;;;;;;42.65;29.52;;;9.40;99.90;;;;;;5001696;28;20084;-63
2022/11/15 07:05:35;;;;;;;41.83;29.02;;;9.40;99.90;;;;;;5002200;28;20046;-62
2022/11/15 07:08:00;;;;;;;41.83;28.33;;;9.50;99.90;;;;;;5002550;28;20054;-63
2022/11/15 07:10:27;;;;;;;41.40;27.55;;;9.40;99.90;;;;;;5001012;28;20544;-63
2022/11/15 07:12:53;;;;;;;42.70;28.02;;;9.50;99.90;;;;;;5000414;28;20407;-63
2022/11/15 07:15:20;;;;;;;38.90;23.92;;;9.50;99.90;;;;;;5001833;28;20114;-63
2022/11/15 07:17:46;;;;;;;41.45;26.75;;;9.50;99.90;;;;;;5002511;28;20076;-64
2022/11/15 07:20:13;;;;;;;35.45;24.83;;;9.80;99.90;;;;;;5000928;28;20832;-63
2022/11/15 07:22:39;;;;;;;37.05;26.50;;;9.60;99.90;;;;;;4999991;28;20097;-62
2022/11/15 07:25:05;;;;;;;38.28;26.08;;;9.70;99.90;;;;;;5001312;28;20096;-63
2022/11/15 07:27:31;;;;;;;38.38;27.40;;;9.80;99.90;;;;;;5001474;28;20046;-63
2022/11/15 07:29:57;;;;;;;36.65;26.55;;;9.70;99.90;;;;;;5001472;28;20038;-62
2022/11/15 07:32:22;;;;;;;34.42;26.15;;;9.90;99.90;;;;;;5004232;28;20117;-63
2022/11/15 07:34:48;;;;;;;39.08;25.83;;;10.00;99.90;;;;;;5005524;28;20104;-62
2022/11/15 07:37:14;;;;;;;34.92;26.10;;;9.90;99.90;;;;;;4987044;28;20061;-63
2022/11/15 07:39:39;;;;;;;33.22;24.95;;;9.90;99.90;;;;;;5004927;28;20068;-63
2022/11/15 07:44:49;;;;;;;33.38;24.75;;;10.10;99.90;;;;;;5004908;28;20057;-63
2022/11/15 07:47:15;;;;;;;31.70;24.17;;;10.00;99.90;;;;;;5005018;28;20049;-63
2022/11/15 07:49:40;;;;;;;33.22;24.23;;;10.00;99.90;;;;;;5005619;28;20519;-63
2022/11/15 07:52:06;;;;;;;32.25;23.90;;;10.10;99.90;;;;;;5005016;28;20049;-63
2022/11/15 07:54:32;;;;;;;33.47;24.55;;;10.10;99.90;;;;;;5003900;28;20046;-63
2022/11/15 07:56:57;;;;;;;31.63;23.38;;;10.40;99.90;;;;;;5004994;28;20038;-63
2022/11/15 07:59:23;;;;;;;32.38;22.95;;;10.10;99.90;;;;;;5004659;28;20045;-63
2022/11/15 08:01:49;;;;;;;31.42;22.95;;;10.40;99.90;;;;;;5004395;28;20504;-63
2022/11/15 08:04:14;;;;;;;28.13;21.40;;;10.30;99.90;;;;;;5004319;28;20052;-63
2022/11/15 08:06:40;;;;;;;29.42;23.13;;;10.60;99.90;;;;;;5003430;28;20124;-63
2022/11/15 08:09:06;;;;;;;30.05;23.08;;;10.60;99.90;;;;;;4987220;28;20080;-63
2022/11/15 08:11:31;;;;;;;32.10;23.15;;;10.40;99.90;;;;;;5004328;28;20135;-62
2022/11/15 08:13:57;;;;;;;29.13;22.35;;;10.60;99.90;;;;;;5004156;28;20042;-63
2022/11/15 08:16:22;;;;;;;29.33;22.38;;;10.40;99.90;;;;;;5005213;28;20129;-63
2022/11/15 08:18:48;;;;;;;31.38;22.73;;;10.60;99.90;;;;;;5005499;28;20127;-63
2022/11/15 08:21:18;;;;;;;29.85;21.88;;;10.70;99.90;;;;;;5003814;28;20142;-63
2022/11/15 08:23:44;;;;;;;29.95;21.45;;;10.50;99.90;;;;;;5004275;28;20054;-63
2022/11/15 08:26:10;;;;;;;26.63;21.40;;;10.80;99.90;;;;;;4986829;28;20054;-63
2022/11/15 08:28:35;;;;;;;25.40;21.40;;;10.80;99.90;;;;;;5003292;28;20046;-63
2022/11/15 08:31:02;;;;;;;25.58;21.38;;;10.70;99.90;;;;;;5004769;28;20053;-63
2022/11/15 08:33:28;;;;;;;25.45;20.83;;;10.90;99.90;;;;;;5004337;28;20554;-60
2022/11/15 08:35:57;;;;;;;26.92;21.05;;;11.00;99.90;;;;;;5004313;28;20084;-65
2022/11/15 08:38:23;;;;;;;25.10;18.40;;;10.90;99.90;;;;;;5003413;28;20706;-62
2022/11/15 08:40:50;;;;;;;27.05;20.85;;;11.00;99.90;;;;;;5004029;28;20053;-62
2022/11/15 08:43:15;;;;;;;26.67;21.20;;;11.10;99.90;;;;;;5003312;28;20432;-62
2022/11/15 08:45:41;;;;;;;25.75;20.50;;;11.10;99.90;;;;;;5003684;28;20054;-63
2022/11/15 08:48:06;;;;;;;25.98;21.02;;;11.00;99.90;;;;;;4987647;28;20092;-63
2022/11/15 08:50:32;;;;;;;27.73;22.15;;;11.10;99.90;;;;;;4987087;28;20168;-62
2022/11/15 08:53:04;;;;;;;26.45;20.10;;;10.90;99.90;;;;;;5004090;28;20049;-66
2022/11/15 08:55:30;;;;;;;27.58;21.60;;;11.00;99.90;;;;;;5002593;28;20081;-66
2022/11/15 08:57:57;;;;;;;26.17;22.40;;;11.20;99.90;;;;;;5003548;28;20445;-67
2022/11/15 09:00:23;;;;;;;26.35;21.67;;;11.10;99.90;;;;;;5004569;28;20488;-66
2022/11/15 09:02:49;;;;;;;27.02;22.20;;;11.30;99.90;;;;;;5002851;28;20163;-67
2022/11/15 09:05:18;;;;;;;28.73;22.30;;;11.10;99.90;;;;;;5002970;28;20045;-66
2022/11/15 09:07:44;;;;;;;26.80;21.90;;;11.20;99.90;;;;;;5003252;28;20124;-67
2022/11/15 09:10:09;;;;;;;28.35;23.33;;;11.50;99.90;;;;;;5003737;28;20129;-66
2022/11/15 09:12:35;;;;;;;29.00;23.00;;;11.40;99.90;;;;;;5002155;28;20038;-67
2022/11/15 09:15:01;;;;;;;27.40;24.08;;;11.20;99.90;;;;;;5002082;28;20042;-67
2022/11/15 09:17:26;;;;;;;27.40;22.48;;;11.20;99.90;;;;;;5003514;28;20045;-67
2022/11/15 09:19:52;;;;;;;29.88;22.73;;;11.30;99.90;;;;;;5003050;28;20133;-67
2022/11/15 09:22:18;;;;;;;27.48;23.27;;;11.30;99.90;;;;;;5003393;28;20489;-66
2022/11/15 09:24:44;;;;;;;30.02;23.70;;;11.40;99.90;;;;;;5003431;28;20487;-66
2022/11/15 09:27:09;;;;;;;32.13;24.40;;;11.30;99.90;;;;;;5002366;28;20057;-66
2022/11/15 09:29:36;;;;;;;27.08;22.73;;;11.30;99.90;;;;;;5002860;28;20531;-66
2022/11/15 09:32:01;;;;;;;34.28;24.98;;;11.50;99.90;;;;;;5003377;28;20074;-67
2022/11/15 09:34:27;;;;;;;31.35;24.50;;;11.30;99.90;;;;;;5002766;28;20069;-68
2022/11/15 09:36:53;;;;;;;30.85;24.90;;;11.50;99.90;;;;;;5003151;28;20103;-67
2022/11/15 09:39:18;;;;;;;29.52;24.00;;;11.50;99.90;;;;;;5002407;28;20382;-66
2022/11/15 09:41:57;;;;;;;32.17;24.08;;;11.40;99.90;;;;;;5001015;28;20413;-68
2022/11/15 09:44:30;;;;;;;30.05;23.75;;;11.60;99.90;;;;;;4986023;28;20073;-66
2022/11/15 09:47:14;;;;;;;28.88;23.40;;;11.40;99.90;;;;;;5003549;28;20050;-66
2022/11/15 09:49:40;;;;;;;25.83;19.77;;;11.40;99.90;;;;;;4985086;28;20050;-67
2022/11/15 09:52:09;;;;;;;30.70;22.48;;;11.70;99.90;;;;;;5002646;28;20436;-67
2022/11/15 09:54:37;;;;;;;28.45;23.83;;;11.60;99.90;;;;;;4984823;28;20077;-66
2022/11/15 09:57:16;;;;;;;28.75;22.65;;;11.60;99.90;;;;;;5002363;28;20045;-67
2022/11/15 10:00:00;;;;;;;29.58;23.27;;;11.60;99.90;;;;;;5002767;28;20367;-66
2022/11/15 10:02:46;;;;;;;27.60;21.98;;;11.50;99.90;;;;;;5002146;28;20041;-67
2022/11/15 10:05:16;;;;;;;28.67;21.88;;;11.40;99.90;;;;;;5002835;28;20405;-67
2022/11/15 10:08:21;;;;;;;27.48;22.90;;;11.40;99.90;;;;;;5002631;28;20041;-67
2022/11/15 10:10:52;;;;;;;26.95;22.60;;;11.60;99.90;;;;;;4961752;28;20045;-67
2022/11/15 10:13:25;;;;;;;27.10;22.23;;;11.70;99.90;;;;;;4984163;28;20088;-67
2022/11/15 10:15:55;;;;;;;25.67;19.58;;;11.60;99.90;;;;;;5002538;28;20033;-67
2022/11/15 10:18:42;;;;;;;24.60;17.13;;;11.60;99.90;;;;;;5002929;28;20096;-67
2022/11/15 10:21:21;;;;;;;25.52;20.83;;;11.70;99.90;;;;;;5002820;28;20053;-66
2022/11/15 10:23:48;;;;;;;26.98;22.92;;;11.40;99.90;;;;;;5002690;28;20057;-66
2022/11/15 10:26:16;;;;;;;26.05;21.35;;;11.70;99.90;;;;;;5001594;28;20046;-67
2022/11/15 10:28:42;;;;;;;25.27;22.05;;;11.40;99.90;;;;;;5001571;28;20042;-67
2022/11/15 10:31:27;;;;;;;24.63;19.30;;;11.40;99.90;;;;;;5002904;28;20669;-67
2022/11/15 10:34:12;;;;;;;26.73;22.05;;;11.50;99.90;;;;;;5002132;28;20046;-66
2022/11/15 10:36:37;;;;;;;25.67;21.50;;;11.60;99.90;;;;;;5002774;28;20085;-67
2022/11/15 10:39:03;;;;;;;27.20;22.20;;;11.30;99.90;;;;;;5000921;28;20450;-67
2022/11/15 10:41:30;;;;;;;25.55;21.30;;;11.40;99.90;;;;;;5002767;28;20469;-67
2022/11/15 10:44:08;;;;;;;25.08;20.92;;;11.60;99.90;;;;;;5002330;28;20129;-66
2022/11/15 10:46:36;;;;;;;26.35;22.33;;;11.40;99.90;;;;;;5001709;28;20049;-67
2022/11/15 10:49:25;;;;;;;24.52;21.88;;;11.50;99.90;;;;;;5002471;28;20042;-67
2022/11/15 10:51:56;;;;;;;23.10;19.83;;;11.70;99.90;;;;;;5001753;28;20038;-67
2022/11/15 10:54:40;;;;;;;25.15;22.05;;;11.60;99.90;;;;;;5002909;28;20042;-66
2022/11/15 10:57:13;;;;;;;22.90;20.42;;;11.70;99.90;;;;;;5001973;28;20093;-70
2022/11/15 10:59:45;;;;;;;26.23;21.88;;;11.70;99.90;;;;;;5002584;28;20689;-66
2022/11/15 11:02:29;;;;;;;22.30;20.00;;;11.60;99.90;;;;;;5002354;28;20045;-66
2022/11/15 11:04:55;;;;;;;22.00;15.68;;;11.70;99.90;;;;;;5003944;28;20528;-66
2022/11/15 11:07:28;;;;;;;20.58;18.05;;;11.70;99.90;;;;;;5006307;28;20046;-66
2022/11/15 11:10:16;;;;;;;19.70;17.63;;;11.50;99.90;;;;;;5005954;28;20444;-66
2022/11/15 11:12:42;;;;;;;16.40;13.20;;;11.70;99.90;;;;;;5005327;28;20046;-66
2022/11/15 11:15:15;;;;;;;20.35;18.15;;;11.70;99.90;;;;;;5006360;28;20038;-66
2022/11/15 11:18:00;;;;;;;19.80;17.40;;;11.70;99.90;;;;;;5005359;28;20082;-67
2022/11/15 11:20:32;;;;;;;20.45;18.35;;;11.70;99.90;;;;;;5005733;28;20038;-66
2022/11/15 11:23:08;;;;;;;19.23;17.25;;;11.60;99.90;;;;;;5005017;28;20196;-66
2022/11/15 11:25:41;;;;;;;19.85;17.45;;;11.50;99.90;;;;;;5005856;28;20034;-68
2022/11/15 11:28:28;;;;;;;20.75;18.67;;;11.80;99.90;;;;;;5004627;28;20041;-67
2022/11/15 11:31:00;;;;;;;20.10;17.95;;;11.70;99.90;;;;;;4988116;28;20153;-67
2022/11/15 11:33:44;;;;;;;20.35;18.25;;;11.70;99.90;;;;;;4987971;28;20049;-66
2022/11/15 11:36:22;;;;;;;21.00;18.80;;;11.70;99.90;;;;;;5005153;28;20057;-66
2022/11/15 11:39:02;;;;;;;21.60;19.40;;;11.90;99.90;;;;;;5005433;28;20108;-67
2022/11/15 11:41:43;;;;;;;20.08;18.05;;;12.00;99.90;;;;;;4987229;28;20049;-66
2022/11/15 11:44:26;;;;;;;20.27;18.17;;;11.90;99.90;;;;;;4987896;28;20101;-67
2022/11/15 11:47:15;;;;;;;20.10;18.00;;;12.00;99.90;;;;;;5005495;28;20076;-66
2022/11/15 11:49:51;;;;;;;19.60;17.50;;;12.00;99.90;;;;;;5003173;28;20057;-66
2022/11/15 11:52:19;;;;;;;21.13;18.92;;;12.00;99.90;;;;;;5004997;28;20053;-66
2022/11/15 11:54:56;;;;;;;18.05;15.15;;;12.10;99.90;;;;;;5005310;28;20042;-66
2022/11/15 11:57:34;;;;;;;18.60;16.80;;;12.20;99.90;;;;;;5004639;28;20435;-66
2022/11/15 12:00:27;;;;;;;18.63;16.83;;;12.50;99.90;;;;;;5005206;28;20046;-66
2022/11/15 12:03:13;;;;;;;17.27;15.48;;;12.30;99.90;;;;;;4986695;28;20138;-66
2022/11/15 12:05:42;;;;;;;18.80;16.90;;;12.60;99.90;;;;;;5003024;28;20045;-66
2022/11/15 12:08:39;;;;;;;16.10;14.52;;;12.30;99.90;;;;;;5004396;28;20057;-67
2022/11/15 12:11:08;;;;;;;15.18;13.65;;;12.70;99.90;;;;;;5004331;28;20085;-67
2022/11/15 12:13:36;;;;;;;14.13;12.70;;;12.70;99.90;;;;;;5002916;28;20135;-66
2022/11/15 12:16:08;;;;;;;13.05;11.02;;;12.80;99.90;;;;;;5004176;28;20096;-66
2022/11/15 12:18:34;;;;;;;13.77;11.27;;;12.80;99.90;;;;;;5004113;28;20112;-68
2022/11/15 12:21:41;;;;;;;11.10;9.82;;;12.70;99.90;;;;;;5004082;28;20042;-66
2022/11/15 12:24:14;;;;;;;12.35;9.48;;;12.60;99.90;;;;;;4986482;28;20046;-68
2022/11/15 12:27:26;;;;;;;14.50;9.93;;;12.40;99.90;;;;;;5003670;28;20050;-67
2022/11/15 12:29:56;;;;;;;10.15;8.30;;;12.50;99.90;;;;;;5004408;28;20061;-66
2022/11/15 12:32:30;;;;;;;8.77;6.85;;;12.20;99.90;;;;;;5003418;28;20041;-66
2022/11/15 12:34:57;;;;;;;13.50;7.25;;;12.20;99.90;;;;;;5004493;28;20095;-66
2022/11/15 12:37:46;;;;;;;9.73;7.43;;;12.30;99.90;;;;;;5004626;28;20081;-66
2022/11/15 12:40:24;;;;;;;10.07;7.97;;;12.20;99.90;;;;;;5004033;28;20050;-66
2022/11/15 12:42:58;;;;;;;9.57;7.22;;;12.40;99.90;;;;;;5003677;28;20045;-66
2022/11/15 12:45:27;;;;;;;9.07;7.50;;;12.30;99.90;;;;;;4984034;28;20042;-67
2022/11/15 12:47:53;;;;;;;10.77;7.60;;;12.40;99.90;;;;;;4967185;28;20053;-66
2022/11/15 12:50:51;;;;;;;9.00;7.20;;;12.50;99.90;;;;;;4984878;28;20050;-66
2022/11/15 12:53:23;;;;;;;9.02;6.70;;;12.50;99.90;;;;;;4983101;28;20500;-66
2022/11/15 12:56:16;;;;;;;7.35;5.57;;;12.60;99.90;;;;;;5002788;28;20468;-66
2022/11/15 12:58:51;;;;;;;7.32;5.85;;;12.70;99.90;;;;;;5002206;28;20046;-66
2022/11/15 13:01:32;;;;;;;;;;;12.70;99.90;;;;;;5004313;28;20054;-59
2022/11/15 13:04:19;;;;;;;7.60;5.07;;;12.70;99.90;;;;;;5003419;28;19952;-66
2022/11/15 13:06:55;;;;;;;7.25;5.00;;;12.70;99.90;;;;;;5002218;28;20045;-66
2022/11/15 13:09:36;;;;;;;10.57;5.13;;;12.70;99.90;;;;;;5002913;28;20058;-66